Time;durP1;ratioP1;P1;durP2;ratioP2;P2;SDS_P1;SDS_P2;PMS_P1;PMS_P2;Temp;Humidity;BMP_temperature;BMP_pressure;BME280_temperature;BME280_humidity;BME280_pressure;Samples;Min_cycle;Max_cycle;Signal;HPM_P1;HPM_P2
2022/01/31 00:01:54;;;;;;;;;;;1.00;99.90;;;;;;4937016;28;19954;-67
2022/01/31 00:04:21;;;;;;;;;;;1.00;99.90;;;;;;4936077;28;20020;-64
2022/01/31 00:06:48;;;;;;;;;;;1.00;99.90;;;;;;4935033;28;20053;-70
2022/01/31 00:09:17;;;;;;;;;;;1.00;99.90;;;;;;4935654;28;19938;-67
2022/01/31 00:11:53;;;;;;;;;;;1.00;99.90;;;;;;4936476;28;19933;-65
2022/01/31 00:14:31;;;;;;;;;;;1.00;99.90;;;;;;4937312;28;19956;-66
2022/01/31 00:16:59;;;;;;;;;;;1.00;99.90;;;;;;4934098;28;20127;-63
2022/01/31 00:19:26;;;;;;;;;;;1.00;99.90;;;;;;4937382;28;19930;-63
2022/01/31 00:21:53;;;;;;;;;;;1.00;99.90;;;;;;4935641;28;19937;-66
2022/01/31 00:24:20;;;;;;;;;;;1.00;99.90;;;;;;4936624;28;19927;-64
2022/01/31 00:26:47;;;;;;;;;;;1.00;99.90;;;;;;4935646;28;19926;-67
2022/01/31 00:29:14;;;;;;;;;;;1.00;99.90;;;;;;4935529;28;22451;-63
2022/01/31 00:31:40;;;;;;;;;;;1.00;99.90;;;;;;4935171;28;20009;-64
2022/01/31 00:34:08;;;;;;;;;;;1.00;99.90;;;;;;4951832;28;20361;-63
2022/01/31 00:36:34;;;;;;;;;;;1.00;99.90;;;;;;4948655;28;19926;-65
2022/01/31 00:39:02;;;;;;;;;;;1.00;99.90;;;;;;4935604;28;19930;-67
2022/01/31 00:41:29;;;;;;;;;;;1.00;99.90;;;;;;4934776;28;19926;-65
2022/01/31 00:44:14;;;;;;;;;;;1.00;99.90;;;;;;4937444;28;20022;-63
2022/01/31 00:46:46;;;;;;;;;;;1.00;99.90;;;;;;4935235;28;20706;-64
2022/01/31 00:49:23;;;;;;;;;;;1.00;99.90;;;;;;4935591;28;20030;-65
2022/01/31 00:51:50;;;;;;;;;;;1.00;99.90;;;;;;4934712;28;20044;-66
2022/01/31 00:54:17;;;;;;;;;;;1.00;99.90;;;;;;4935281;28;20017;-65
2022/01/31 00:56:44;;;;;;;;;;;0.90;99.90;;;;;;4939361;28;19945;-65
2022/01/31 00:59:10;;;;;;;;;;;0.90;99.90;;;;;;4936770;28;20011;-67
2022/01/31 01:01:37;;;;;;;;;;;0.90;99.90;;;;;;4954464;28;20017;-64
2022/01/31 01:04:04;;;;;;;;;;;0.90;99.90;;;;;;4936646;28;19936;-63
2022/01/31 01:06:31;;;;;;;;;;;1.00;99.90;;;;;;4953051;28;19927;-64
2022/01/31 01:08:58;;;;;;;;;;;0.90;99.90;;;;;;4938640;28;20036;-65
2022/01/31 01:11:25;;;;;;;;;;;0.90;99.90;;;;;;4952605;28;19926;-67
2022/01/31 01:13:52;;;;;;;;;;;0.90;99.90;;;;;;4938274;28;20314;-65
2022/01/31 01:16:19;;;;;;;;;;;0.90;99.90;;;;;;4939233;28;19941;-64
2022/01/31 01:18:46;;;;;;;;;;;0.90;99.90;;;;;;4952088;28;20029;-66
2022/01/31 01:21:13;;;;;;;;;;;0.90;99.90;;;;;;4939288;28;20284;-63
2022/01/31 01:23:40;;;;;;;;;;;0.90;99.90;;;;;;4913610;28;20102;-71
2022/01/31 01:26:08;;;;;;;;;;;0.90;99.90;;;;;;4918629;28;20080;-65
2022/01/31 01:28:35;;;;;;;;;;;0.90;99.90;;;;;;4915632;28;20032;-68
2022/01/31 01:31:02;;;;;;;;;;;0.80;99.90;;;;;;4919589;28;19926;-65
2022/01/31 01:33:38;;;;;;;;;;;0.90;99.90;;;;;;4827540;28;19996;-65
2022/01/31 01:36:06;;;;;;;;;;;0.90;99.90;;;;;;306275;28;10022006;-67
2022/01/31 01:38:34;;;;;;;;;;;0.90;99.90;;;;;;4910847;28;20288;-68
2022/01/31 01:41:01;;;;;;;;;;;0.90;99.90;;;;;;4923587;28;20373;-67
2022/01/31 01:43:30;;;;;;;;;;;0.90;99.90;;;;;;4903348;28;20021;-69
2022/01/31 01:45:58;;;;;;;;;;;0.90;99.90;;;;;;4905644;28;19930;-64
2022/01/31 01:48:29;;;;;;;;;;;0.80;99.90;;;;;;4903364;28;19938;-69
2022/01/31 01:50:57;;;;;;;;;;;0.80;99.90;;;;;;4919319;28;19953;-65
2022/01/31 01:53:25;;;;;;;;;;;0.80;99.90;;;;;;4915758;28;19930;-67
2022/01/31 01:55:53;;;;;;;;;;;0.90;99.90;;;;;;4932584;28;20920;-63
2022/01/31 01:58:25;;;;;;;;;;;0.80;99.90;;;;;;4953286;28;19926;-62
2022/01/31 02:01:02;;;;;;;;;;;0.80;99.90;;;;;;4959154;28;19931;-66
2022/01/31 02:03:52;;;;;;;;;;;0.80;99.90;;;;;;4937451;28;20004;-65
2022/01/31 02:06:24;;;;;;;;;;;0.80;99.90;;;;;;4959302;28;20016;-66
2022/01/31 02:08:51;;;;;;;;;;;0.80;99.90;;;;;;4939050;28;19927;-63
2022/01/31 02:11:25;;;;;;;;;;;0.90;99.90;;;;;;4959428;28;19926;-66
2022/01/31 02:13:54;;;;;;;;;;;0.90;99.90;;;;;;4935356;28;20030;-63
2022/01/31 02:16:20;;;;;;;;;;;0.90;99.90;;;;;;4937832;28;19968;-66
2022/01/31 02:18:58;;;;;;;;;;;0.90;99.90;;;;;;4938200;28;20312;-64
2022/01/31 02:21:44;;;;;;;;;;;0.90;99.90;;;;;;4938243;28;19937;-64
2022/01/31 02:24:31;;;;;;;;;;;0.80;99.90;;;;;;4935090;28;19937;-66
2022/01/31 02:27:22;;;;;;;;;;;0.80;99.90;;;;;;4953363;28;19933;-66
2022/01/31 02:29:49;;;;;;;;;;;0.80;99.90;;;;;;4935620;28;20052;-64
2022/01/31 02:32:20;;;;;;;;;;;0.80;99.90;;;;;;4951564;28;19930;-64
2022/01/31 02:34:52;;;;;;;;;;;0.80;99.90;;;;;;4958407;28;19960;-66
2022/01/31 02:37:19;;;;;;;;;;;0.80;99.90;;;;;;4937835;28;20037;-66
2022/01/31 02:39:47;;;;;;;;;;;0.80;99.90;;;;;;4959012;28;19931;-67
2022/01/31 02:42:14;;;;;;;;;;;0.80;99.90;;;;;;4950018;28;19935;-65
2022/01/31 02:44:41;;;;;;;;;;;0.80;99.90;;;;;;4958247;28;19937;-67
2022/01/31 02:47:24;;;;;;;;;;;0.80;99.90;;;;;;4951793;28;19949;-65
2022/01/31 02:49:59;;;;;;;;;;;0.80;99.90;;;;;;4938809;28;19986;-67
2022/01/31 02:52:29;;;;;;;;;;;0.80;99.90;;;;;;4932900;28;19931;-65
2022/01/31 02:54:56;;;;;;;;;;;0.70;99.90;;;;;;4938567;28;19933;-66
2022/01/31 02:57:24;;;;;;;;;;;0.70;99.90;;;;;;4950704;28;19977;-66
2022/01/31 02:59:51;;;;;;;;;;;0.70;99.90;;;;;;4937913;28;20491;-64
2022/01/31 03:02:21;;;;;;;;;;;0.70;99.90;;;;;;4932893;28;20403;-65
2022/01/31 03:04:48;;;;;;;;;;;0.70;99.90;;;;;;4938383;28;20044;-64
2022/01/31 03:07:15;;;;;;;;;;;0.70;99.90;;;;;;4950403;28;19930;-64
2022/01/31 03:21:28;;;;;;;;;;;0.70;99.90;;;;;;4936908;28;20000;-69
2022/01/31 03:23:55;;;;;;;;;;;0.70;99.90;;;;;;4925753;28;19927;-70
2022/01/31 03:26:21;;;;;;;;;;;0.70;99.90;;;;;;4923996;28;19930;-65
2022/01/31 03:28:49;;;;;;;;;;;0.70;99.90;;;;;;4916510;28;20411;-64
2022/01/31 03:31:19;;;;;;;;;;;0.70;99.90;;;;;;4900792;28;20327;-69
2022/01/31 03:34:04;;;;;;;;;;;0.70;99.90;;;;;;4366017;28;10000584;-65
2022/01/31 03:36:31;;;;;;;;;;;0.70;99.90;;;;;;2024024;28;10002067;-68
2022/01/31 03:38:58;;;;;;;;;;;0.70;99.90;;;;;;4927273;28;19930;-64
2022/01/31 03:41:26;;;;;;;;;;;0.70;99.90;;;;;;4901204;28;20118;-65
2022/01/31 03:43:53;;;;;;;;;;;0.70;99.90;;;;;;4903988;28;19930;-69
2022/01/31 03:46:20;;;;;;;;;;;0.60;99.90;;;;;;4901251;28;19931;-69
2022/01/31 03:48:48;;;;;;;;;;;0.60;99.90;;;;;;4915188;28;19954;-64
2022/01/31 03:51:33;;;;;;;;;;;0.60;99.90;;;;;;4903294;28;20412;-68
2022/01/31 03:54:00;;;;;;;;;;;0.60;99.90;;;;;;4924586;28;19936;-63
2022/01/31 03:56:27;;;;;;;;;;;0.60;99.90;;;;;;4934510;28;19938;-67
2022/01/31 03:59:01;;;;;;;;;;;0.60;99.90;;;;;;4951523;28;20013;-65
2022/01/31 04:01:28;;;;;;;;;;;0.60;99.90;;;;;;4933833;28;19973;-62
2022/01/31 04:03:55;;;;;;;;;;;0.50;99.90;;;;;;4937615;28;19926;-65
2022/01/31 04:06:23;;;;;;;;;;;0.50;99.90;;;;;;4935416;28;19941;-63
2022/01/31 04:08:50;;;;;;;;;;;0.60;99.90;;;;;;4935526;28;20903;-65
2022/01/31 04:11:17;;;;;;;;;;;0.50;99.90;;;;;;4935277;28;19930;-62
2022/01/31 04:13:44;;;;;;;;;;;0.50;99.90;;;;;;4936837;28;19937;-66
2022/01/31 04:16:11;;;;;;;;;;;0.50;99.90;;;;;;4936689;28;19937;-65
2022/01/31 04:18:38;;;;;;;;;;;0.50;99.90;;;;;;4936480;28;19993;-68
2022/01/31 04:21:04;;;;;;;;;;;0.50;99.90;;;;;;4948542;28;19930;-65
2022/01/31 04:23:31;;;;;;;;;;;0.40;99.90;;;;;;4936977;28;19942;-64
2022/01/31 04:26:11;;;;;;;;;;;0.40;99.90;;;;;;4936353;28;19930;-64
2022/01/31 04:28:50;;;;;;;;;;;0.40;99.90;;;;;;4937485;28;19937;-65
2022/01/31 04:33:48;;;;;;;;;;;0.40;99.90;;;;;;4939790;28;20277;-64
2022/01/31 04:36:15;;;;;;;;;;;0.40;99.90;;;;;;4939830;28;19930;-67
2022/01/31 04:38:43;;;;;;;;;;;0.40;99.90;;;;;;4939724;28;20357;-62
2022/01/31 04:41:10;;;;;;;;;;;0.40;99.90;;;;;;4938527;28;19997;-65
2022/01/31 04:43:37;;;;;;;;;;;0.40;99.90;;;;;;4938232;28;20224;-64
2022/01/31 04:46:06;;;;;;;;;;;0.40;99.90;;;;;;4940046;28;19930;-66
2022/01/31 04:48:33;;;;;;;;;;;0.40;99.90;;;;;;4939557;28;19941;-66
2022/01/31 04:51:00;;;;;;;;;;;0.40;99.90;;;;;;4937839;28;19930;-64
2022/01/31 04:53:27;;;;;;;;;;;0.40;99.90;;;;;;4939612;28;19930;-64
2022/01/31 04:55:54;;;;;;;;;;;0.40;99.90;;;;;;4939940;28;19933;-66
2022/01/31 04:58:22;;;;;;;;;;;0.40;99.90;;;;;;4939229;28;19937;-67
2022/01/31 05:00:50;;;;;;;;;;;0.40;99.90;;;;;;4939499;28;19926;-66
2022/01/31 05:03:19;;;;;;;;;;;0.50;99.90;;;;;;4937490;28;19930;-65
2022/01/31 05:05:46;;;;;;;;;;;0.40;99.90;;;;;;4939376;28;19930;-66
2022/01/31 05:08:13;;;;;;;;;;;0.40;99.90;;;;;;4938380;28;19930;-66
2022/01/31 05:10:48;;;;;;;;;;;0.40;99.90;;;;;;4938490;28;19930;-64
2022/01/31 05:13:16;;;;;;;;;;;0.40;99.90;;;;;;4937400;28;20060;-67
2022/01/31 05:15:44;;;;;;;;;;;0.40;99.90;;;;;;4939136;28;20994;-64
2022/01/31 05:18:11;;;;;;;;;;;0.50;99.90;;;;;;4939538;28;19954;-65
2022/01/31 05:20:38;;;;;;;;;;;0.50;99.90;;;;;;4938379;28;20029;-64
2022/01/31 05:23:06;;;;;;;;;;;0.50;99.90;;;;;;4932988;28;19933;-66
2022/01/31 05:25:33;;;;;;;;;;;0.40;99.90;;;;;;4907432;28;20018;-68
2022/01/31 05:28:00;;;;;;;;;;;0.40;99.90;;;;;;4907275;28;19927;-64
2022/01/31 05:30:26;;;;;;;;;;;0.40;99.90;;;;;;4906949;28;19949;-67
2022/01/31 05:32:54;;;;;;;;;;;0.40;99.90;;;;;;4845878;28;21069;-63
2022/01/31 05:35:35;;;;;;;;;;;0.40;99.90;;;;;;1086264;28;10021814;-68
2022/01/31 05:38:02;;;;;;;;;;;0.30;99.90;;;;;;4567166;28;10001003;-64
2022/01/31 05:40:31;;;;;;;;;;;0.30;99.90;;;;;;4905959;28;20732;-66
2022/01/31 05:42:57;;;;;;;;;;;0.30;99.90;;;;;;4905437;28;19953;-66
2022/01/31 05:45:24;;;;;;;;;;;0.30;99.90;;;;;;4903877;28;19930;-65
2022/01/31 05:47:51;;;;;;;;;;;0.40;99.90;;;;;;4906437;28;20537;-67
2022/01/31 05:50:18;;;;;;;;;;;0.40;99.90;;;;;;4905430;28;19930;-69
2022/01/31 05:52:45;;;;;;;;;;;0.40;99.90;;;;;;4905018;28;20036;-69
2022/01/31 05:55:12;;;;;;;;;;;0.30;99.90;;;;;;4932984;28;19950;-63
2022/01/31 05:57:39;;;;;;;;;;;0.30;99.90;;;;;;4936515;28;20377;-63
2022/01/31 06:00:07;;;;;;;;;;;0.30;99.90;;;;;;4939001;28;19926;-68
2022/01/31 06:02:35;;;;;;;;;;;0.30;99.90;;;;;;4938275;28;19930;-71
2022/01/31 06:05:03;;;;;;;;;;;0.20;99.90;;;;;;4951903;28;19937;-64
2022/01/31 06:07:30;;;;;;;;;;;0.20;99.90;;;;;;4937079;28;20640;-68
2022/01/31 06:09:57;;;;;;;;;;;0.30;99.90;;;;;;4936837;28;20001;-63
2022/01/31 06:12:24;;;;;;;;;;;0.30;99.90;;;;;;4937830;28;19985;-63
2022/01/31 06:14:52;;;;;;;;;;;0.30;99.90;;;;;;4960581;28;20017;-65
2022/01/31 06:17:18;;;;;;;;;;;0.30;99.90;;;;;;4937963;28;20368;-68
2022/01/31 06:19:45;;;;;;;;;;;0.30;99.90;;;;;;4951338;28;19969;-66
2022/01/31 06:22:12;;;;;;;;;;;0.20;99.90;;;;;;4937009;28;19930;-65
2022/01/31 06:24:40;;;;;;;;;;;0.20;99.90;;;;;;4939980;28;20568;-68
2022/01/31 06:27:21;;;;;;;;;;;0.20;99.90;;;;;;4959022;28;19962;-64
2022/01/31 06:29:48;;;;;;;;;;;0.20;99.90;;;;;;4935788;28;19938;-66
2022/01/31 06:32:26;;;;;;;;;;;0.30;99.90;;;;;;4950420;28;19930;-66
2022/01/31 06:34:54;;;;;;;;;;;0.20;99.90;;;;;;4937682;28;19936;-68
2022/01/31 06:37:21;;;;;;;;;;;0.20;99.90;;;;;;4935461;28;19930;-66
2022/01/31 06:39:48;;;;;;;;;;;0.20;99.90;;;;;;4934063;28;20382;-67
2022/01/31 06:42:15;;;;;;;;;;;0.20;99.90;;;;;;4935447;28;19936;-65
2022/01/31 06:44:41;;;;;;;;;;;0.20;99.90;;;;;;4937482;28;20789;-65
2022/01/31 06:47:08;;;;;;;;;;;0.20;99.90;;;;;;4936033;28;19930;-66
2022/01/31 06:49:35;;;;;;;;;;;0.10;99.90;;;;;;4936400;28;19961;-67
2022/01/31 06:52:03;;;;;;;;;;;0.10;99.90;;;;;;4932396;28;20036;-68
2022/01/31 06:54:29;;;;;;;;;;;0.10;99.90;;;;;;4929882;28;20025;-65
2022/01/31 06:56:58;;;;;;;;;;;0.20;99.90;;;;;;4933084;28;19954;-69
2022/01/31 06:59:24;;;;;;;;;;;0.20;99.90;;;;;;4932294;28;21181;-68
2022/01/31 07:01:51;;;;;;;;;;;0.20;99.90;;;;;;4935551;28;19934;-67
2022/01/31 07:04:18;;;;;;;;;;;0.20;99.90;;;;;;4938036;28;19988;-64
2022/01/31 07:06:45;;;;;;;;;;;0.20;99.90;;;;;;4932264;28;19931;-64
2022/01/31 07:09:12;;;;;;;;;;;0.10;99.90;;;;;;4931251;28;20037;-64
2022/01/31 07:11:41;;;;;;;;;;;0.10;99.90;;;;;;4931453;28;20101;-64
2022/01/31 07:14:29;;;;;;;;;;;0.20;99.90;;;;;;4928362;28;20041;-65
2022/01/31 07:16:56;;;;;;;;;;;0.20;99.90;;;;;;4940954;28;20326;-66
2022/01/31 07:19:26;;;;;;;;;;;0.10;99.90;;;;;;4933550;28;19941;-66
2022/01/31 07:21:53;;;;;;;;;;;0.10;99.90;;;;;;4931826;28;19933;-65
2022/01/31 07:26:48;;;;;;;;;;;0.20;99.90;;;;;;4945413;28;20027;-65
2022/01/31 07:29:16;;;;;;;;;;;0.20;99.90;;;;;;4913217;28;20021;-70
2022/01/31 07:31:45;;;;;;;;;;;0.20;99.90;;;;;;4916469;28;20337;-64
2022/01/31 07:34:27;;;;;;;;;;;0.10;99.90;;;;;;3950876;28;10001397;-65
2022/01/31 07:36:54;;;;;;;;;;;0.10;99.90;;;;;;2370129;28;10001971;-70
2022/01/31 07:39:23;;;;;;;;;;;0.10;99.90;;;;;;3475102;28;10022782;-65
2022/01/31 07:41:50;;;;;;;;;;;0.10;99.90;;;;;;1690356;28;10002031;-63
2022/01/31 07:44:17;;;;;;;;;;;0.10;99.90;;;;;;4904476;28;19930;-64
2022/01/31 07:46:44;;;;;;;;;;;0.20;99.90;;;;;;4908825;28;19929;-65
2022/01/31 07:49:11;;;;;;;;;;;0.20;99.90;;;;;;4906391;28;21134;-70
2022/01/31 07:51:40;;;;;;;;;;;0.10;99.90;;;;;;4906352;28;20017;-64
2022/01/31 07:54:08;;;;;;;;;;;0.20;99.90;;;;;;4907956;28;19930;-65
2022/01/31 07:56:35;;;;;;;;;;;0.20;99.90;;;;;;4903593;28;19934;-67
2022/01/31 07:59:02;;;;;;;;;;;0.20;99.90;;;;;;4923066;28;19937;-65
2022/01/31 08:01:29;;;;;;;;;;;0.20;99.90;;;;;;4935337;28;19930;-68
2022/01/31 08:03:56;;;;;;;;;;;0.20;99.90;;;;;;4937774;28;20028;-66
2022/01/31 08:06:23;;;;;;;;;;;0.20;99.90;;;;;;4938908;28;20037;-65
2022/01/31 08:08:50;;;;;;;;;;;0.20;99.90;;;;;;4953872;28;20029;-66
2022/01/31 08:11:17;;;;;;;;;;;0.20;99.90;;;;;;4939531;28;19972;-67
2022/01/31 08:13:44;;;;;;;;;;;0.20;99.90;;;;;;4938748;28;20368;-65
2022/01/31 08:16:13;;;;;;;;;;;0.20;99.90;;;;;;4938404;28;19959;-67
2022/01/31 08:18:41;;;;;;;;;;;0.20;99.90;;;;;;4937908;28;19930;-69
2022/01/31 08:21:08;;;;;;;;;;;0.20;99.90;;;;;;4936718;28;19942;-66
2022/01/31 08:23:35;;;;;;;;;;;0.20;99.90;;;;;;4953264;28;19996;-70
2022/01/31 08:26:04;;;;;;;;;;;0.20;99.90;;;;;;4937290;28;19928;-65
2022/01/31 08:28:41;;;;;;;;;;;0.20;99.90;;;;;;4939230;28;19965;-63
2022/01/31 08:31:18;;;;;;;;;;;0.20;99.90;;;;;;4936318;28;20017;-65
2022/01/31 08:34:02;;;;;;;;;;;0.20;99.90;;;;;;4939110;28;20297;-66
2022/01/31 08:36:31;;;;;;;;;;;0.10;99.90;;;;;;4936170;28;19931;-66
2022/01/31 08:38:58;;;;;;;;;;;0.10;99.90;;;;;;4937872;28;20076;-63
2022/01/31 08:41:25;;;;;;;;;;;0.20;99.90;;;;;;4938422;28;20599;-65
2022/01/31 08:43:52;;;;;;;;;;;0.10;99.90;;;;;;4940004;28;19973;-64
2022/01/31 08:46:19;;;;;;;;;;;0.10;99.90;;;;;;4938102;28;19994;-69
2022/01/31 08:48:46;;;;;;;;;;;0.10;99.90;;;;;;4938965;28;20276;-71
2022/01/31 08:51:13;;;;;;;;;;;0.10;99.90;;;;;;4936135;28;20539;-65
2022/01/31 08:53:40;;;;;;;;;;;0.10;99.90;;;;;;4940063;28;19930;-69
2022/01/31 08:56:09;;;;;;;;;;;0.10;99.90;;;;;;4937536;28;20041;-67
2022/01/31 08:58:41;;;;;;;;;;;0.00;99.90;;;;;;4961684;28;20329;-66
2022/01/31 09:01:09;;;;;;;;;;;0.00;99.90;;;;;;4950819;28;20033;-66
2022/01/31 09:03:55;;;;;;;;;;;0.00;99.90;;;;;;4938164;28;19953;-66
2022/01/31 09:06:23;;;;;;;;;;;0.00;99.90;;;;;;4937666;28;19941;-64
2022/01/31 09:08:51;;;;;;;;;;;0.10;99.90;;;;;;4938443;28;19977;-63
2022/01/31 09:11:18;;;;;;;;;;;0.00;99.90;;;;;;4935644;28;20227;-67
2022/01/31 09:13:45;;;;;;;;;;;0.00;99.90;;;;;;4937873;28;20057;-67
2022/01/31 09:16:12;;;;;;;;;;;0.00;99.90;;;;;;4936958;28;19939;-67
2022/01/31 09:18:39;;;;;;;;;;;-0.10;99.90;;;;;;4936778;28;19945;-66
2022/01/31 09:21:06;;;;;;;;;;;-0.10;99.90;;;;;;4934900;28;19926;-68
2022/01/31 09:23:33;;;;;;;;;;;-0.10;99.90;;;;;;4932424;28;19930;-67
2022/01/31 09:26:00;;;;;;;;;;;0.00;99.90;;;;;;4937192;28;20017;-64
2022/01/31 09:28:27;;;;;;;;;;;0.00;99.90;;;;;;4950271;28;20024;-67
2022/01/31 09:30:54;;;;;;;;;;;0.00;99.90;;;;;;4936606;28;19930;-67
2022/01/31 09:33:25;;;;;;;;;;;0.00;99.90;;;;;;4917009;28;19930;-68
2022/01/31 09:35:52;;;;;;;;;;;0.00;99.90;;;;;;4903024;28;19934;-67
2022/01/31 09:38:23;;;;;;;;;;;0.00;99.90;;;;;;4840822;28;20479;-64
2022/01/31 09:40:51;;;;;;;;;;;0.00;99.90;;;;;;948327;28;10002038;-67
2022/01/31 09:51:01;;;;;;;;;;;0.00;99.90;;;;;;4905197;28;19977;-65
2022/01/31 09:53:33;;;;;;;;;;;0.00;99.90;;;;;;4901762;28;20132;-70
2022/01/31 09:56:00;;;;;;;;;;;0.00;99.90;;;;;;4902526;28;20046;-66
2022/01/31 09:58:29;;;;;;;;;;;0.00;99.90;;;;;;4902759;28;20090;-66
2022/01/31 10:01:02;;;;;;;;;;;0.00;99.90;;;;;;4902762;28;20017;-64
2022/01/31 10:03:29;;;;;;;;;;;0.00;99.90;;;;;;4912961;28;19930;-66
2022/01/31 10:05:56;;;;;;;;;;;0.00;99.90;;;;;;4937303;28;19937;-65
2022/01/31 10:08:27;;;;;;;;;;;0.00;99.90;;;;;;4938072;28;19930;-70
2022/01/31 10:11:00;;;;;;;;;;;0.00;99.90;;;;;;4936404;28;19926;-66
2022/01/31 10:16:32;;;;;;;;;;;0.00;99.90;;;;;;4935049;28;19945;-66
2022/01/31 10:19:19;;;;;;;;;;;0.00;99.90;;;;;;4937723;28;19940;-68
2022/01/31 10:21:56;;;;;;;;;;;0.00;99.90;;;;;;4934737;28;20045;-68
2022/01/31 10:24:24;;;;;;;;;;;0.00;99.90;;;;;;4937832;28;20476;-63
2022/01/31 10:26:52;;;;;;;;;;;0.00;99.90;;;;;;4936027;28;19948;-67
2022/01/31 10:29:20;;;;;;;;;;;-0.10;99.90;;;;;;4938059;28;20219;-66
2022/01/31 10:31:53;;;;;;;;;;;0.00;99.90;;;;;;4934797;28;19932;-64
2022/01/31 10:34:27;;;;;;;;;;;0.00;99.90;;;;;;4937648;28;19969;-68
2022/01/31 10:36:54;;;;;;;;;;;0.00;99.90;;;;;;4936000;28;20032;-66
2022/01/31 10:56:56;;;;;;;;;;;-0.10;99.90;;;;;;4934483;28;20966;-68
2022/01/31 10:59:29;;;;;;;;;;;-0.10;99.90;;;;;;4934759;28;19977;-66
2022/01/31 11:01:57;;;;;;;;;;;-0.20;99.90;;;;;;4933062;28;20056;-64
2022/01/31 11:04:31;;;;;;;;;;;-0.10;99.90;;;;;;4934369;28;19993;-63
2022/01/31 11:06:59;;;;;;;;;;;-0.10;99.90;;;;;;4933308;28;19930;-68
2022/01/31 11:09:28;;;;;;;;;;;-0.10;99.90;;;;;;4958160;28;19930;-64
2022/01/31 11:11:55;;;;;;;;;;;-0.20;99.90;;;;;;4933197;28;19936;-66
2022/01/31 11:14:22;;;;;;;;;;;-0.10;99.90;;;;;;4934740;28;20028;-66
2022/01/31 11:16:54;;;;;;;;;;;-0.10;99.90;;;;;;4932602;28;19993;-66
2022/01/31 11:19:30;;;;;;;;;;;-0.10;99.90;;;;;;4949849;28;20244;-66
2022/01/31 11:22:04;;;;;;;;;;;-0.10;99.90;;;;;;4933362;28;19930;-66
2022/01/31 11:24:57;;;;;;;;;;;-0.10;99.90;;;;;;4932290;28;19965;-67
2022/01/31 11:27:25;;;;;;;;;;;-0.20;99.90;;;;;;4931100;28;20341;-66
2022/01/31 11:29:55;;;;;;;;;;;-0.20;99.90;;;;;;4935104;28;20016;-68
2022/01/31 11:32:25;;;;;;;;;;;-0.20;99.90;;;;;;4903284;28;19938;-73
2022/01/31 11:34:53;;;;;;;;;;;-0.10;99.90;;;;;;4902167;28;19957;-65
2022/01/31 11:37:21;;;;;;;;;;;-0.10;99.90;;;;;;4869150;28;19937;-64
2022/01/31 11:40:03;;;;;;;;;;;-0.10;99.90;;;;;;2362400;28;10022263;-65
2022/01/31 11:42:30;;;;;;;;;;;-0.10;99.90;;;;;;3549110;28;10001707;-64
2022/01/31 11:45:04;;;;;;;;;;;-0.10;99.90;;;;;;4904572;28;20056;-64
2022/01/31 11:47:31;;;;;;;;;;;-0.10;99.90;;;;;;4901420;28;19930;-67
2022/01/31 11:49:59;;;;;;;;;;;-0.20;99.90;;;;;;4901279;28;19933;-65
2022/01/31 11:52:30;;;;;;;;;;;-0.20;99.90;;;;;;4900752;28;19930;-67
2022/01/31 11:54:59;;;;;;;;;;;-0.20;99.90;;;;;;4902967;28;19926;-65
2022/01/31 11:57:30;;;;;;;;;;;-0.20;99.90;;;;;;4901110;28;20329;-66
2022/01/31 12:00:08;;;;;;;;;;;-0.20;99.90;;;;;;4902002;28;20017;-68
2022/01/31 12:02:47;;;;;;;;;;;-0.10;99.90;;;;;;4926798;28;19954;-67
2022/01/31 12:05:19;;;;;;;;;;;-0.20;99.90;;;;;;4956263;28;20345;-65
2022/01/31 12:07:47;;;;;;;;;;;-0.10;99.90;;;;;;4934149;28;20381;-65
2022/01/31 12:10:16;;;;;;;;;;;-0.20;99.90;;;;;;4932082;28;19981;-66
2022/01/31 12:12:52;;;;;;;;;;;-0.20;99.90;;;;;;4928949;28;20305;-65
2022/01/31 12:18:41;;;;;;;;;;;-0.20;99.90;;;;;;4906426;28;20020;-68
2022/01/31 12:23:59;;;;;;;;;;;-0.20;99.90;;;;;;4903735;28;19930;-66
2022/01/31 12:26:29;;;;;;;;;;;-0.20;99.90;;;;;;4903516;28;20260;-67
2022/01/31 12:28:57;;;;;;;;;;;-0.10;99.90;;;;;;4901166;28;19957;-66
2022/01/31 12:31:27;;;;;;;;;;;-0.20;99.90;;;;;;4893429;28;20671;-72
2022/01/31 12:33:54;;;;;;;;;;;-0.20;99.90;;;;;;4904600;28;19930;-65
2022/01/31 12:36:36;;;;;;;;;;;-0.20;99.90;;;;;;4900272;28;19930;-68
2022/01/31 12:39:05;;;;;;;;;;;-0.20;99.90;;;;;;4900386;28;19926;-70
2022/01/31 12:41:32;;;;;;;;;;;-0.20;99.90;;;;;;4900713;28;20168;-68
2022/01/31 12:44:18;;;;;;;;;;;-0.20;99.90;;;;;;4899893;28;20037;-70
2022/01/31 12:46:49;;;;;;;;;;;-0.20;99.90;;;;;;4902695;28;19957;-65
2022/01/31 12:49:16;;;;;;;;;;;-0.20;99.90;;;;;;4935411;28;19930;-65
2022/01/31 12:51:56;;;;;;;;;;;-0.20;99.90;;;;;;4937404;28;20420;-68
2022/01/31 12:54:24;;;;;;;;;;;-0.20;99.90;;;;;;4938167;28;19998;-64
2022/01/31 12:56:52;;;;;;;;;;;-0.20;99.90;;;;;;4936129;28;19944;-66
2022/01/31 12:59:19;;;;;;;;;;;-0.20;99.90;;;;;;4938002;28;19953;-67
2022/01/31 13:01:47;;;;;;;;;;;-0.20;99.90;;;;;;4938742;28;19969;-64
2022/01/31 13:04:19;;;;;;;;;;;-0.20;99.90;;;;;;4937439;28;19954;-65
2022/01/31 13:06:47;;;;;;;;;;;-0.20;99.90;;;;;;4937716;28;19970;-67
2022/01/31 13:09:21;;;;;;;;;;;-0.20;99.90;;;;;;4937305;28;19922;-64
2022/01/31 13:11:50;;;;;;;;;;;-0.20;99.90;;;;;;4936393;28;19994;-67
2022/01/31 13:14:19;;;;;;;;;;;-0.20;99.90;;;;;;4938980;28;19941;-65
2022/01/31 13:17:08;;;;;;;;;;;-0.20;99.90;;;;;;4934591;28;20542;-64
2022/01/31 13:19:36;;;;;;;;;;;-0.20;99.90;;;;;;4939096;28;19931;-64
2022/01/31 13:22:12;;;;;;;;;;;-0.20;99.90;;;;;;4937102;28;19985;-66
2022/01/31 13:24:43;;;;;;;;;;;-0.30;99.90;;;;;;4905916;28;19938;-67
2022/01/31 13:27:11;;;;;;;;;;;-0.20;99.90;;;;;;4905966;28;19937;-71
2022/01/31 13:29:59;;;;;;;;;;;-0.20;99.90;;;;;;4909153;28;20284;-70
2022/01/31 13:32:29;;;;;;;;;;;-0.20;99.90;;;;;;4908810;28;19933;-71
2022/01/31 13:35:11;;;;;;;;;;;-0.20;99.90;;;;;;4909292;28;19930;-66
2022/01/31 13:37:59;;;;;;;;;;;-0.20;99.90;;;;;;4904707;28;19982;-67
2022/01/31 13:40:32;;;;;;;;;;;-0.20;99.90;;;;;;4904939;28;19937;-68
2022/01/31 13:43:22;;;;;;;;;;;-0.20;99.90;;;;;;4864509;28;19930;-65
2022/01/31 13:48:40;;;;;;;;;;;-0.30;99.90;;;;;;2365623;28;10002020;-67
2022/01/31 13:51:12;;;;;;;;;;;-0.30;99.90;;;;;;4902337;28;19926;-70
2022/01/31 13:53:39;;;;;;;;;;;-0.30;99.90;;;;;;4917717;28;19969;-70
2022/01/31 13:56:08;;;;;;;;;;;-0.30;99.90;;;;;;4936207;28;19936;-63
2022/01/31 13:58:37;;;;;;;;;;;-0.30;99.90;;;;;;4937421;28;19934;-66
2022/01/31 14:01:04;;;;;;;;;;;-0.30;99.90;;;;;;4936475;28;20045;-67
2022/01/31 14:03:39;;;;;;;;;;;-0.30;99.90;;;;;;4936158;28;19982;-66
2022/01/31 14:06:08;;;;;;;;;;;-0.30;99.90;;;;;;4936486;28;20037;-68
2022/01/31 14:08:42;;;;;;;;;;;-0.30;99.90;;;;;;4937261;28;21292;-66
2022/01/31 14:11:13;;;;;;;;;;;-0.30;99.90;;;;;;4936268;28;19933;-66
2022/01/31 14:13:43;;;;;;;;;;;-0.40;99.90;;;;;;4935061;28;19934;-65
2022/01/31 14:16:12;;;;;;;;;;;-0.40;99.90;;;;;;4936470;28;19985;-68
2022/01/31 14:18:39;;;;;;;;;;;-0.40;99.90;;;;;;4937521;28;19945;-65
2022/01/31 14:21:07;;;;;;;;;;;-0.40;99.90;;;;;;4935468;28;20017;-68
2022/01/31 14:23:38;;;;;;;;;;;-0.30;99.90;;;;;;4934872;28;19948;-66
2022/01/31 14:26:06;;;;;;;;;;;-0.40;99.90;;;;;;4935443;28;20490;-67
2022/01/31 14:28:34;;;;;;;;;;;-0.30;99.90;;;;;;4935681;28;19927;-68
2022/01/31 14:31:01;;;;;;;;;;;-0.30;99.90;;;;;;4935628;28;19926;-66
2022/01/31 14:33:29;;;;;;;;;;;-0.30;99.90;;;;;;4935964;28;19953;-68
2022/01/31 14:36:06;;;;;;;;;;;-0.30;99.90;;;;;;4932412;28;19926;-67
2022/01/31 14:38:44;;;;;;;;;;;-0.30;99.90;;;;;;4948314;28;19933;-70
2022/01/31 14:41:33;;;;;;;;;;;-0.30;99.90;;;;;;4947936;28;19926;-65
2022/01/31 14:49:40;;;;;;;;;;;-0.40;99.90;;;;;;4933454;28;20278;-69
2022/01/31 14:52:08;;;;;;;;;;;-0.40;99.90;;;;;;4934038;28;19962;-67
2022/01/31 14:54:35;;;;;;;;;;;-0.40;99.90;;;;;;4934439;28;19934;-66
2022/01/31 14:57:02;;;;;;;;;;;-0.40;99.90;;;;;;4935127;28;19931;-67
2022/01/31 14:59:29;;;;;;;;;;;-0.40;99.90;;;;;;4936398;28;20018;-64
2022/01/31 15:01:56;;;;;;;;;;;-0.50;99.90;;;;;;4934358;28;19973;-67
2022/01/31 15:04:43;;;;;;;;;;;-0.40;99.90;;;;;;4934744;28;20008;-67
2022/01/31 15:07:09;;;;;;;;;;;-0.40;99.90;;;;;;4935362;28;19930;-65
2022/01/31 15:09:36;;;;;;;;;;;-0.40;99.90;;;;;;4935678;28;19937;-67
2022/01/31 15:12:04;;;;;;;;;;;-0.40;99.90;;;;;;4934539;28;20552;-68
2022/01/31 15:14:31;;;;;;;;;;;-0.50;99.90;;;;;;4935911;28;19932;-67
2022/01/31 15:16:58;;;;;;;;;;;-0.50;99.90;;;;;;4936802;28;20032;-67
2022/01/31 15:19:24;;;;;;;;;;;-0.50;99.90;;;;;;4936765;28;20411;-66
2022/01/31 15:21:52;;;;;;;;;;;-0.50;99.90;;;;;;4933939;28;19992;-65
2022/01/31 15:24:20;;;;;;;;;;;-0.50;99.90;;;;;;4936323;28;20293;-68
2022/01/31 15:26:46;;;;;;;;;;;-0.50;99.90;;;;;;4904724;28;19930;-66
2022/01/31 15:29:13;;;;;;;;;;;-0.50;99.90;;;;;;4908031;28;19930;-63
2022/01/31 15:31:41;;;;;;;;;;;-0.50;99.90;;;;;;4906537;28;19934;-65
2022/01/31 15:34:12;;;;;;;;;;;-0.50;99.90;;;;;;4906025;28;20305;-67
2022/01/31 15:36:39;;;;;;;;;;;-0.50;99.90;;;;;;4905892;28;20028;-66
2022/01/31 15:39:22;;;;;;;;;;;-0.60;99.90;;;;;;4314672;28;10000250;-69